• Join FlightAware (Why Join?)
  • Login
  • US Flag 
09:28PM EDT


 

Airport Tracker/Info


-or-


 

Live Flight TrackerFlight Track Log ✈ UAL4206 ✈ 13-Oct-2013 ✈ KORD - CYOW

Flight Track Log - Related Links

Times and Time Zones

All times are in EDT time to prevent confusion due to time zone crossing. See the UAL4206 flight status page for this flight to view local times or setup timezone preferences in your user account.

Time Position Orientation Groundspeed Altitude Reporting Facility
EDT Latitude Longitude Course Direction KTS MPH feet Rate Location/Type
02:59PM 42.0167 -87.9333 37° Northeast 182 209 2,500  Level Chicago TRACON
03:00PM 42.0500 -87.9000 37° Northeast 235 270 3,800 1,020 Climbing Chicago TRACON
03:01PM 42.1264 -87.8158 39° Northeast 253 291 5,000 1,080 Climbing Chicago Center
03:02PM 42.1642 -87.7383 57° Northeast 251 289 6,500 1,980 Climbing Chicago Center
03:03PM 42.1844 -87.6144 78° East 274 315 9,200 2,160 Climbing Chicago Center
03:04PM 42.2033 -87.5056 77° East 293 337 11,000 1,200 Climbing Chicago Center
03:05PM 42.2247 -87.3822 77° East 329 379 11,700 960 Climbing Chicago Center
03:06PM 42.2478 -87.2469 77° East 363 418 13,000 1,200 Climbing Chicago Center
03:07PM 42.2717 -87.1097 77° East 374 430 14,300 1,200 Climbing Chicago Center
03:08PM 42.2822 -86.9628 84° East 391 450 15,500 1,200 Climbing Chicago Center
03:09PM 42.2903 -86.7842 86° East 397 457 16,900 1,200 Climbing Chicago Center
03:11PM 42.2950 -86.6456 87° East 406 467 18,000 960 Climbing Chicago Center
03:12PM 42.3019 -86.4697 87° East 410 472 18,900 960 Climbing Chicago Center
03:13PM 42.3078 -86.3139 87° East 417 480 20,000 960 Climbing Chicago Center
03:14PM 42.3131 -86.1547 87° East 425 489 21,000 960 Climbing Chicago Center
03:15PM 42.3131 -85.9936 90° East 432 497 22,000 960 Climbing Chicago Center
03:16PM 42.3122 -85.8289 90° East 438 504 23,100 1,200 Climbing Chicago Center
03:17PM 42.3094 -85.6328 91° East 439 505 24,500 1,200 Climbing Chicago Center
03:18PM 42.3078 -85.4686 91° East 441 507 25,700 1,140 Climbing Chicago Center
03:19PM 42.3047 -85.3069 91° East 435 501 26,900 1,080 Climbing Chicago Center
03:20PM 42.3025 -85.1464 91° East 432 497 28,000 1,080 Climbing Chicago Center
03:21PM 42.2994 -84.9892 91° East 423 487 29,200 1,200 Climbing Chicago Center
03:22PM 42.2958 -84.8006 91° East 422 486 30,600 1,200 Climbing Chicago Center
03:23PM 42.2911 -84.6431 92° East 422 486 31,800 1,140 Climbing Chicago Center
03:24PM 42.2875 -84.4869 92° East 419 482 33,000 1,260 Climbing Chicago Center
03:25PM 42.3072 -84.3336 80° East 411 473 34,500 1,140 Climbing Chicago Center
03:26PM 42.3200 -84.2311 80° East 411 473 35,000 240 Climbing Cleveland Center
03:27PM 42.3408 -84.0828 79° East 404 465 35,000  Level Cleveland Center
03:28PM 42.3611 -83.9356 79° East 400 460 35,000  Level Cleveland Center
03:29PM 42.3814 -83.7897 79° East 396 456 35,000  Level Cleveland Center
03:30PM 42.4050 -83.6144 80° East 391 450 35,000  Level Cleveland Center
03:31PM 42.4411 -83.4717 71° East 397 457 35,000  Level Cleveland Center
03:32PM 42.4786 -83.3306 70° East 395 455 35,000  Level Cleveland Center
03:33PM 42.5153 -83.1911 70° East 392 451 35,000  Level Cleveland Center
03:34PM 42.5528 -83.0508 70° East 395 455 35,000  Level Cleveland Center
03:35PM 42.5889 -82.9111 71° East 394 453 35,000  Level Cleveland Center
03:36PM 42.6256 -82.7728 70° East 391 450 35,000  Level Cleveland Center
03:37PM 42.6683 -82.6072 71° East 389 448 35,000  Level Cleveland Center
03:38PM 42.7042 -82.4706 70° East 386 444 35,000  Level Cleveland Center
03:39PM 42.7392 -82.3322 71° East 387 445 35,000  Level Cleveland Center
03:41PM 42.7833 -82.0667 77° East 390 449 35,000  Level Toronto Center
03:42PM 42.8333 -81.9000 68° East 390 449 35,000  Level Toronto Center
03:43PM 42.8667 -81.7667 71° East 390 449 35,000  Level Toronto Center
03:44PM 42.9000 -81.6333 71° East 390 449 35,000  Level Toronto Center
03:45PM 42.9333 -81.5000 71° East 390 449 35,000  Level Toronto Center
03:46PM 42.9667 -81.3667 71° East 380 437 35,000  Level Toronto Center
03:47PM 43.0000 -81.2333 71° East 380 437 35,000  Level Toronto Center
03:48PM 43.0333 -81.1000 71° East 370 426 35,000  Level Toronto Center
03:49PM 43.0833 -80.9833 60° Northeast 370 426 35,000  Level Toronto Center
03:50PM 43.1333 -80.8500 63° Northeast 370 426 35,000  Level Toronto Center
03:51PM 43.2000 -80.7333 52° Northeast 370 426 35,000  Level Toronto Center
03:52PM 43.2500 -80.6000 63° Northeast 370 426 35,000  Level Toronto Center
03:53PM 43.3000 -80.4833 59° Northeast 370 426 35,000  Level Toronto Center
03:54PM 43.3500 -80.3667 59° Northeast 370 426 35,000  Level Toronto Center
03:55PM 43.4000 -80.2333 63° Northeast 370 426 35,000  Level Toronto Center
03:56PM 43.4500 -80.1167 59° Northeast 370 426 35,000  Level Toronto Center
03:57PM 43.5000 -79.9833 63° Northeast 370 426 35,000  Level Toronto Center
03:58PM 43.5500 -79.8667 59° Northeast 370 426 35,000  Level Toronto Center
03:59PM 43.6000 -79.7333 63° Northeast 380 437 35,000  Level Toronto Center
04:00PM 43.6500 -79.6167 59° Northeast 380 437 35,000  Level Toronto Center
04:01PM 43.7000 -79.4667 65° Northeast 390 449 35,000  Level Toronto Center
04:02PM 43.7333 -79.3333 71° East 370 426 35,000  Level Toronto Center
04:03PM 43.7667 -79.2000 71° East 380 437 35,000  Level Toronto Center
04:04PM 43.8167 -79.0500 65° Northeast 380 437 35,000  Level Toronto Center
04:05PM 43.8500 -78.9167 71° East 380 437 35,000  Level Toronto Center
04:06PM 43.8833 -78.8000 68° East 380 437 35,000  Level Toronto Center
04:07PM 43.9333 -78.6667 62° Northeast 370 426 35,000  Level Toronto Center
04:08PM 43.9667 -78.5167 73° East 370 426 35,000  Level Toronto Center
04:09PM 43.9833 -78.3833 80° East 370 426 35,000  Level Toronto Center
04:10PM 44.0333 -78.2667 59° Northeast 370 426 35,000  Level Toronto Center
04:11PM 44.0833 -78.1167 65° Northeast 370 426 35,000  Level Toronto Center
04:12PM 44.1333 -78.0000 59° Northeast 370 426 35,000  Level Toronto Center
04:13PM 44.2000 -77.8833 51° Northeast 370 426 35,000  Level Toronto Center
04:14PM 44.2500 -77.7667 59° Northeast 370 426 35,000 -240 Level Toronto Center
04:15PM 44.3167 -77.6500 51° Northeast 370 426 34,600 -1,200 Descending Toronto Center
04:16PM 44.3667 -77.5333 59° Northeast 380 437 32,700 -2,100 Descending Toronto Center
04:17PM 44.4333 -77.3833 58° Northeast 380 437 30,400 -2,160 Descending Toronto Center
04:18PM 44.4667 -77.2667 68° East 380 437 28,400 -2,100 Descending Toronto Center
04:19PM 44.5333 -77.1500 51° Northeast 380 437 26,300 -2,040 Descending Toronto Center
04:20PM 44.6000 -77.0333 51° Northeast 380 437 24,400 -1,920 Descending Toronto Center
04:21PM 44.6500 -76.9167 59° Northeast 370 426 22,500 -2,100 Descending Toronto Center
04:22PM 44.7167 -76.8000 51° Northeast 360 414 20,300 -2,040 Descending Toronto Center
04:23PM 44.7667 -76.6667 62° Northeast 350 403 18,500 -1,560 Descending Toronto Center
04:24PM 44.8167 -76.5833 50° Northeast 350 403 17,200 -1,380 Descending Toronto Center
04:25PM 44.8667 -76.4500 62° Northeast 340 391 15,800 -1,500 Descending Toronto Center
04:26PM 44.9333 -76.3500 47° Northeast 330 380 14,300 -1,500 Descending Toronto Center
04:27PM 44.9833 -76.2667 50° Northeast 330 380 12,900 -1,440 Descending Toronto Center
04:28PM 45.0333 -76.1667 55° Northeast 310 357 11,500 -1,500 Descending Toronto Center
04:29PM 45.0667 -76.0500 68° East 300 345 10,000 -1,500 Descending Toronto Center
04:30PM 45.1000 -75.9500 65° Northeast 290 334 8,500 -1,500 Descending Toronto Center
04:31PM 45.1500 -75.8500 55° Northeast 280 322 7,000 -1,260 Descending Toronto Center
04:32PM 45.1833 -75.7500 65° Northeast 270 311 6,000 -600 Descending Toronto Center
04:33PM 45.2333 -75.6500 55° Northeast 280 322 5,900 -600 Descending Toronto Center
04:34PM 45.2667 -75.5833 55° Northeast 270 311 4,800 -1,140 Descending Toronto Center
04:35PM 45.3000 -75.5000 60° Northeast 250 288 3,500 -1,140 Descending Montreal Center
04:36PM 45.3500 -75.4500 35° Northeast 230 265 2,400 -780 Descending Montreal Center
04:37PM 45.3667 -75.5167 290° West 190 219 2,000 -480 Descending Montreal Center
04:38PM 45.3333 -75.5833 235° Southwest 140 161 1,500 -600 Descending Montreal Center
04:39PM 45.3167 -75.6167 235° Southwest 130 150 800 -540 Descending Montreal Center
04:40PM 45.3000 -75.6667 245° Southwest 130 150 500 -300 Descending Montreal Center